الصفحة الرئيسية
METAR-TAF:

METAR-TAF

مطار :

Meeker, كولورادو, الولايات المتحدة

Meeker Airport

دائرة عرض: 40-02-32N, خط طول: 107-53-23W, ارتفاع: 1948 متر

مراقبة الطقس الحالي

تاريخ ووقت الإصدار 23 دقيقة قبل الساعة 15:53UTC
رياح هادئة
درجة الحرارة 4°درجة مئوية
الرطوبة 48%
ضغط 1028 hPa
الرؤية: 16.1 كم
سماء صافية

METAR: KEEO 251553Z AUTO 00000KT 10SM CLR 04/M06 A3037 RMK AO2 SLP272 T00441056

زمن: 10:16 (16:16 UTC)


TAF: مفقودة

أرصاد الطقس والتوقعات من أكثر من 4000 مطار (تقارير الطقس للمطار METAR والتنبؤ بالطقس بالمطارTAF).

المحطات المتاحة هي النقط الصفراء والحمراء على الخريطة.

حرك المؤشر فوق النقطة لمعرفة اسم المحطة.

ثم انقر لمعرفة أرصاد وتوقعات الطقس.

لتغيير الخارطة: اضغط على الأزرار الخضراء مع رمز الصليب الأسود للتكبير. على الزر الأخضر مع شرطة للتصغير، أو على الأسهم الخضراء للخرائط المجاورة.


METAR-TAF: